Time;durP1;ratioP1;P1;durP2;ratioP2;P2;SDS_P1;SDS_P2;PMS_P1;PMS_P2;Temp;Humidity;BMP_temperature;BMP_pressure;BME280_temperature;BME280_humidity;BME280_pressure;Samples;Min_cycle;Max_cycle;Signal;HPM_P1;HPM_P2
2021/09/16 00:02:13;;;;;;;3.33;1.77;;;22.50;59.70;;;;;;5059468;28;20041;-52
2021/09/16 00:04:40;;;;;;;1.55;0.82;;;22.50;59.70;;;;;;5059139;28;20121;-56
2021/09/16 00:07:07;;;;;;;1.83;1.00;;;22.50;59.80;;;;;;5051640;28;20632;-56
2021/09/16 00:09:35;;;;;;;1.15;1.05;;;22.50;59.80;;;;;;5063043;28;20071;-56
2021/09/16 00:12:02;;;;;;;3.50;1.75;;;22.40;60.40;;;;;;5048850;28;20128;-55
2021/09/16 00:14:29;;;;;;;3.05;0.90;;;22.40;60.10;;;;;;5065942;28;20518;-55
2021/09/16 00:16:56;;;;;;;1.75;1.08;;;22.40;60.30;;;;;;5056331;28;20053;-55
2021/09/16 00:19:23;;;;;;;4.28;1.30;;;22.30;60.50;;;;;;5054833;28;20045;-55
2021/09/16 00:21:50;;;;;;;1.30;1.10;;;22.30;60.40;;;;;;5052788;28;20119;-55
2021/09/16 00:24:18;;;;;;;4.32;1.30;;;22.30;60.40;;;;;;5050809;28;20077;-55
2021/09/16 00:26:46;;;;;;;6.90;2.78;;;22.30;60.50;;;;;;5066760;28;20541;-54
2021/09/16 00:29:14;;;;;;;2.38;1.13;;;22.30;60.50;;;;;;5053032;28;20064;-56
2021/09/16 00:31:41;;;;;;;1.30;1.10;;;22.30;60.40;;;;;;5053014;28;20044;-57
2021/09/16 00:34:08;;;;;;;6.18;1.65;;;22.20;60.50;;;;;;5053236;28;20033;-58
2021/09/16 00:36:37;;;;;;;4.85;1.20;;;22.20;60.40;;;;;;5051694;28;20146;-56
2021/09/16 00:39:05;;;;;;;3.15;1.15;;;22.20;60.50;;;;;;5057917;28;20041;-56
2021/09/16 00:41:32;;;;;;;2.13;1.50;;;22.20;60.60;;;;;;5053475;28;20083;-55
2021/09/16 00:44:01;;;;;;;2.60;0.70;;;22.20;60.60;;;;;;5060313;28;20128;-55
2021/09/16 00:46:28;;;;;;;7.07;1.58;;;22.20;60.80;;;;;;5057403;28;20572;-55
2021/09/16 00:48:55;;;;;;;1.55;1.40;;;22.20;60.90;;;;;;5053342;28;20129;-57
2021/09/16 00:51:22;;;;;;;2.67;1.17;;;22.20;61.00;;;;;;5064086;28;20228;-56
2021/09/16 00:53:52;;;;;;;1.70;1.08;;;22.20;60.90;;;;;;5053591;28;20039;-55
2021/09/16 00:56:21;;;;;;;2.15;1.67;;;22.10;60.90;;;;;;5063274;28;20124;-54
2021/09/16 00:58:52;;;;;;;7.93;1.95;;;22.10;61.00;;;;;;5060040;28;20131;-52
2021/09/16 01:01:21;;;;;;;3.55;0.80;;;22.10;61.10;;;;;;5059009;28;20037;-53
2021/09/16 01:03:48;;;;;;;1.75;0.77;;;22.10;61.20;;;;;;5051498;28;20053;-55
2021/09/16 01:06:16;;;;;;;1.13;0.77;;;22.10;61.40;;;;;;5050982;28;20191;-55
2021/09/16 01:08:43;;;;;;;1.83;1.25;;;22.10;61.40;;;;;;5065045;28;20469;-54
2021/09/16 01:11:11;;;;;;;3.25;0.95;;;22.00;61.20;;;;;;5050935;28;20535;-55
2021/09/16 01:13:38;;;;;;;5.10;1.08;;;22.00;61.20;;;;;;5057765;28;20641;-55
2021/09/16 01:16:06;;;;;;;3.70;0.93;;;22.00;61.00;;;;;;5060824;28;20072;-57
2021/09/16 01:18:34;;;;;;;3.38;1.23;;;21.90;60.90;;;;;;5063624;28;20041;-55
2021/09/16 01:21:01;;;;;;;1.08;0.90;;;22.00;61.00;;;;;;5048903;28;20041;-52
2021/09/16 01:23:29;;;;;;;5.03;1.48;;;21.90;61.20;;;;;;5055712;28;20132;-57
2021/09/16 01:25:56;;;;;;;1.65;1.23;;;21.90;61.50;;;;;;5060936;28;20055;-56
2021/09/16 01:28:23;;;;;;;1.63;0.80;;;21.90;61.30;;;;;;5058963;28;20517;-56
2021/09/16 01:30:51;;;;;;;0.70;0.60;;;21.80;61.40;;;;;;5051001;28;20604;-57
2021/09/16 01:33:18;;;;;;;1.05;0.70;;;21.80;61.60;;;;;;5050776;28;20036;-57
2021/09/16 01:35:45;;;;;;;1.15;0.60;;;21.80;61.80;;;;;;5047729;28;20080;-56
2021/09/16 01:38:12;;;;;;;2.42;1.20;;;21.70;61.90;;;;;;5047828;28;20075;-56
2021/09/16 01:40:41;;;;;;;1.20;0.90;;;21.70;61.80;;;;;;5047141;28;20048;-56
2021/09/16 01:43:08;;;;;;;3.53;1.38;;;21.70;61.90;;;;;;5051817;28;20037;-57
2021/09/16 01:45:35;;;;;;;3.55;1.33;;;21.70;61.80;;;;;;5049974;28;20060;-57
2021/09/16 01:48:02;;;;;;;3.63;0.40;;;21.60;62.00;;;;;;5062862;28;20037;-55
2021/09/16 01:50:29;;;;;;;2.65;0.98;;;21.60;62.10;;;;;;5052966;28;20106;-54
2021/09/16 01:52:56;;;;;;;3.40;0.95;;;21.60;62.00;;;;;;5059756;28;20033;-55
2021/09/16 01:55:24;;;;;;;1.38;0.88;;;21.60;62.10;;;;;;5061115;28;20150;-54
2021/09/16 01:57:53;;;;;;;1.08;0.65;;;21.60;62.30;;;;;;5050767;28;20494;-54
2021/09/16 02:00:20;;;;;;;3.38;0.85;;;21.50;62.30;;;;;;5048325;28;20045;-56
2021/09/16 02:02:47;;;;;;;1.20;0.57;;;21.50;62.20;;;;;;5051096;28;20428;-56
2021/09/16 02:05:15;;;;;;;1.40;0.50;;;21.50;62.30;;;;;;5047787;28;20065;-54
2021/09/16 02:07:42;;;;;;;2.35;0.50;;;21.50;62.60;;;;;;5046784;28;20063;-57
2021/09/16 02:10:10;;;;;;;3.65;0.80;;;21.50;62.60;;;;;;5052949;28;20472;-53
2021/09/16 02:12:37;;;;;;;2.70;1.08;;;21.50;62.60;;;;;;5063492;28;20044;-54
2021/09/16 02:15:07;;;;;;;4.07;0.60;;;21.50;62.50;;;;;;5049584;28;20041;-55
2021/09/16 02:17:34;;;;;;;0.82;0.77;;;21.50;62.50;;;;;;5048755;28;20041;-55
2021/09/16 02:20:01;;;;;;;2.80;0.73;;;21.50;62.50;;;;;;5052741;28;20386;-52
2021/09/16 02:22:30;;;;;;;2.15;0.50;;;21.40;62.50;;;;;;5050105;28;20037;-58
2021/09/16 02:24:57;;;;;;;1.65;0.60;;;21.40;62.80;;;;;;5054958;28;20048;-56
2021/09/16 02:27:24;;;;;;;1.23;0.50;;;21.40;63.40;;;;;;5062220;28;20048;-56
2021/09/16 02:29:51;;;;;;;2.75;0.30;;;21.40;62.80;;;;;;5053127;28;20132;-55
2021/09/16 02:32:20;;;;;;;3.22;0.57;;;21.40;62.80;;;;;;5051229;28;20546;-56
2021/09/16 02:34:47;;;;;;;1.50;0.35;;;21.40;62.80;;;;;;5052057;28;20049;-55
2021/09/16 02:37:14;;;;;;;5.57;0.60;;;21.40;62.80;;;;;;5055699;28;20738;-54
2021/09/16 02:39:41;;;;;;;12.65;1.20;;;21.40;63.50;;;;;;5055371;28;20075;-52
2021/09/16 02:42:09;;;;;;;1.95;0.60;;;21.40;63.00;;;;;;5052397;28;20045;-53
2021/09/16 02:44:36;;;;;;;2.45;0.60;;;21.40;62.80;;;;;;5052560;28;20472;-54
2021/09/16 02:47:03;;;;;;;1.17;0.80;;;21.40;62.80;;;;;;5054288;28;20048;-55
2021/09/16 02:49:31;;;;;;;2.05;0.68;;;21.30;62.90;;;;;;5060245;28;20039;-50
2021/09/16 02:51:58;;;;;;;1.98;0.85;;;21.30;63.00;;;;;;5063146;28;20096;-53
2021/09/16 02:54:25;;;;;;;1.10;0.77;;;21.30;63.00;;;;;;5053468;28;20033;-50
2021/09/16 02:56:52;;;;;;;3.38;0.98;;;21.30;63.00;;;;;;5064629;28;20047;-51
2021/09/16 02:59:19;;;;;;;0.77;0.57;;;21.30;63.10;;;;;;5060986;28;20123;-52
2021/09/16 03:01:46;;;;;;;0.50;0.50;;;21.30;63.10;;;;;;5056084;28;20699;-52
2021/09/16 03:04:13;;;;;;;2.53;0.65;;;21.30;63.10;;;;;;5052948;28;20072;-51
2021/09/16 03:06:42;;;;;;;0.60;0.60;;;21.30;63.10;;;;;;5053072;28;20033;-55
2021/09/16 03:09:09;;;;;;;2.70;1.20;;;21.30;63.10;;;;;;5054432;28;20582;-55
2021/09/16 03:11:36;;;;;;;3.13;0.50;;;21.20;63.10;;;;;;5051961;28;20047;-52
2021/09/16 03:14:03;;;;;;;3.85;0.77;;;21.20;63.20;;;;;;5064328;28;20037;-54
2021/09/16 03:16:30;;;;;;;2.40;0.80;;;21.20;63.40;;;;;;5052521;28;20041;-51
2021/09/16 03:18:57;;;;;;;4.10;0.68;;;21.20;63.40;;;;;;5065291;28;20123;-55
2021/09/16 03:21:24;;;;;;;0.88;0.57;;;21.20;63.30;;;;;;5053842;28;20083;-56
2021/09/16 03:23:53;;;;;;;0.88;0.52;;;21.20;63.40;;;;;;5050981;28;20045;-55
2021/09/16 03:26:20;;;;;;;0.75;0.63;;;21.20;63.40;;;;;;5065863;28;20029;-54
2021/09/16 03:28:47;;;;;;;1.35;0.77;;;21.20;63.40;;;;;;5055908;28;20743;-53
2021/09/16 03:31:14;;;;;;;1.52;0.57;;;21.20;63.50;;;;;;5062584;28;20029;-55
2021/09/16 03:33:42;;;;;;;1.38;0.90;;;21.20;63.40;;;;;;5053778;28;20123;-55
2021/09/16 03:36:09;;;;;;;4.43;1.73;;;21.20;63.30;;;;;;5064270;28;20048;-55
2021/09/16 03:38:37;;;;;;;3.15;1.00;;;21.20;63.30;;;;;;5055441;28;20525;-54
2021/09/16 03:41:05;;;;;;;1.70;1.30;;;21.20;63.30;;;;;;5060926;28;20404;-55
2021/09/16 03:43:32;;;;;;;1.45;0.70;;;21.20;63.40;;;;;;5059850;28;20049;-55
2021/09/16 03:45:59;;;;;;;2.20;0.93;;;21.20;63.40;;;;;;5061896;28;20551;-55
2021/09/16 03:48:26;;;;;;;2.97;0.93;;;21.20;63.60;;;;;;5052647;28;20110;-56
2021/09/16 03:50:53;;;;;;;1.95;0.68;;;21.20;63.60;;;;;;5068301;28;20051;-56
2021/09/16 03:53:20;;;;;;;0.50;0.45;;;21.20;63.70;;;;;;5053161;28;20049;-57
2021/09/16 03:55:47;;;;;;;4.10;0.65;;;21.20;63.70;;;;;;5060694;28;20052;-57
2021/09/16 03:58:16;;;;;;;2.90;0.50;;;21.20;63.70;;;;;;5062497;28;20114;-58
2021/09/16 04:00:43;;;;;;;3.65;1.20;;;21.20;63.60;;;;;;5050569;28;20146;-57
2021/09/16 04:03:11;;;;;;;2.30;0.90;;;21.20;64.10;;;;;;5066374;28;20036;-57
2021/09/16 04:05:40;;;;;;;2.20;0.60;;;21.20;63.60;;;;;;5066536;28;20040;-56
2021/09/16 04:08:07;;;;;;;1.60;0.80;;;21.20;63.80;;;;;;5062145;28;20135;-55
2021/09/16 04:10:35;;;;;;;1.50;0.98;;;21.20;63.80;;;;;;5059737;28;20043;-56
2021/09/16 04:13:02;;;;;;;3.92;1.42;;;21.20;63.80;;;;;;5066468;28;20221;-56
2021/09/16 04:15:30;;;;;;;10.40;1.35;;;21.20;63.70;;;;;;5065081;28;20033;-56
2021/09/16 04:17:57;;;;;;;0.75;0.52;;;21.20;63.40;;;;;;5052643;28;20140;-55
2021/09/16 04:20:24;;;;;;;2.70;0.77;;;21.20;63.40;;;;;;5065494;28;20040;-56
2021/09/16 04:22:51;;;;;;;1.58;1.05;;;21.20;63.30;;;;;;5062143;28;20056;-55
2021/09/16 04:25:18;;;;;;;1.77;1.13;;;21.20;63.40;;;;;;5061680;28;20036;-56
2021/09/16 04:27:46;;;;;;;1.00;0.95;;;21.10;63.50;;;;;;5061378;28;20106;-55
2021/09/16 04:30:13;;;;;;;1.00;0.90;;;21.20;63.60;;;;;;5066314;28;20698;-55
2021/09/16 04:32:42;;;;;;;2.35;0.80;;;21.10;63.70;;;;;;5069296;28;20135;-54
2021/09/16 04:35:10;;;;;;;2.85;1.13;;;21.10;63.60;;;;;;5065934;28;20052;-56
2021/09/16 04:37:37;;;;;;;4.53;0.68;;;21.10;63.50;;;;;;5056647;28;20059;-57
2021/09/16 04:40:06;;;;;;;1.10;1.00;;;21.10;63.60;;;;;;5053092;28;20041;-56
2021/09/16 04:42:33;;;;;;;5.65;0.90;;;21.10;63.80;;;;;;5062231;28;20135;-55
2021/09/16 04:45:00;;;;;;;5.03;0.73;;;21.10;63.80;;;;;;5065829;28;20127;-56
2021/09/16 04:47:27;;;;;;;1.10;0.73;;;21.10;63.80;;;;;;5055425;28;20049;-56
2021/09/16 04:49:56;;;;;;;0.82;0.80;;;21.10;63.80;;;;;;5058406;28;20043;-56
2021/09/16 04:52:25;;;;;;;4.65;2.45;;;21.10;63.80;;;;;;5064482;28;20049;-56
2021/09/16 04:54:52;;;;;;;2.25;0.73;;;21.10;63.80;;;;;;5066497;28;20040;-54
2021/09/16 04:57:19;;;;;;;2.20;0.93;;;21.10;63.80;;;;;;5064442;28;20091;-55
2021/09/16 04:59:46;;;;;;;1.08;1.05;;;21.00;63.70;;;;;;5046829;28;20041;-55
2021/09/16 05:02:13;;;;;;;3.22;1.25;;;21.10;63.80;;;;;;5065258;28;20114;-56
2021/09/16 05:04:40;;;;;;;2.13;0.88;;;21.00;63.70;;;;;;5065128;28;20158;-57
2021/09/16 05:07:08;;;;;;;2.47;1.13;;;21.00;63.80;;;;;;5060119;28;20045;-55
2021/09/16 05:09:36;;;;;;;2.25;1.50;;;21.00;63.80;;;;;;5048695;28;20045;-53
2021/09/16 05:12:03;;;;;;;1.55;1.45;;;21.00;63.90;;;;;;5061070;28;20543;-55
2021/09/16 05:14:30;;;;;;;2.88;1.00;;;21.00;63.80;;;;;;5067602;28;20614;-57
2021/09/16 05:16:58;;;;;;;4.10;1.40;;;21.00;63.70;;;;;;5060678;28;20033;-55
2021/09/16 05:19:25;;;;;;;1.35;0.88;;;21.00;63.70;;;;;;5060836;28;20044;-56
2021/09/16 05:21:52;;;;;;;4.47;1.13;;;21.00;63.80;;;;;;5060317;28;20064;-56
2021/09/16 05:24:21;;;;;;;5.28;0.93;;;21.00;63.90;;;;;;5051131;28;20051;-54
2021/09/16 05:26:48;;;;;;;3.35;0.80;;;20.90;63.90;;;;;;5063893;28;20036;-57
2021/09/16 05:29:16;;;;;;;4.35;1.25;;;21.00;63.90;;;;;;5051617;28;20045;-56
2021/09/16 05:31:43;;;;;;;5.60;1.65;;;20.90;64.00;;;;;;5050135;28;20817;-56
2021/09/16 05:34:10;;;;;;;1.25;0.70;;;20.90;63.90;;;;;;5053801;28;20033;-54
2021/09/16 05:36:38;;;;;;;1.33;0.98;;;20.90;63.90;;;;;;5063589;28;20558;-56
2021/09/16 05:39:05;;;;;;;3.22;1.77;;;20.90;64.00;;;;;;5048711;28;20041;-54
2021/09/16 05:41:34;;;;;;;4.45;2.60;;;20.90;64.00;;;;;;5055273;28;20052;-55
2021/09/16 05:44:01;;;;;;;3.63;0.75;;;20.90;64.00;;;;;;5052674;28;20064;-53
2021/09/16 05:46:30;;;;;;;2.00;1.15;;;20.90;64.00;;;;;;5059318;28;20045;-53
2021/09/16 05:48:57;;;;;;;4.13;1.35;;;20.90;63.90;;;;;;5051945;28;20658;-55
2021/09/16 05:51:25;;;;;;;3.00;1.17;;;20.90;63.80;;;;;;5050583;28;20043;-56
2021/09/16 05:53:52;;;;;;;7.53;1.77;;;20.90;63.80;;;;;;5047294;28;20045;-54
2021/09/16 05:56:19;;;;;;;2.05;1.08;;;20.90;63.80;;;;;;5064860;28;20238;-53
2021/09/16 05:58:48;;;;;;;3.75;1.10;;;20.80;63.60;;;;;;5054193;28;20048;-55
2021/09/16 06:01:16;;;;;;;4.93;1.05;;;20.90;63.70;;;;;;5061373;28;20402;-56
2021/09/16 06:03:43;;;;;;;2.22;0.90;;;20.80;63.60;;;;;;5050532;28;20045;-57
2021/09/16 06:06:10;;;;;;;2.25;0.73;;;20.80;63.60;;;;;;5052019;28;20048;-56
2021/09/16 06:08:37;;;;;;;6.28;1.77;;;20.90;63.70;;;;;;5048479;28;20056;-56
2021/09/16 06:11:05;;;;;;;8.82;1.40;;;20.90;63.60;;;;;;5050268;28;20048;-56
2021/09/16 06:13:32;;;;;;;2.53;0.93;;;20.90;63.40;;;;;;5060191;28;20044;-56
2021/09/16 06:16:00;;;;;;;2.75;0.70;;;20.80;63.10;;;;;;5065566;28;20045;-56
2021/09/16 06:18:28;;;;;;;1.92;0.82;;;20.80;63.00;;;;;;5064261;28;20131;-56
2021/09/16 06:20:55;;;;;;;4.25;0.95;;;20.80;62.90;;;;;;5049328;28;20117;-56
2021/09/16 06:23:23;;;;;;;3.22;1.05;;;20.80;62.80;;;;;;5050328;28;20075;-55
2021/09/16 06:25:50;;;;;;;1.83;0.43;;;20.80;62.70;;;;;;5059325;28;20114;-53
2021/09/16 06:28:17;;;;;;;4.80;0.73;;;20.80;62.60;;;;;;5056933;28;20507;-56
2021/09/16 06:30:45;;;;;;;7.65;0.77;;;20.80;62.70;;;;;;5049372;28;20049;-55
2021/09/16 06:33:14;;;;;;;2.75;1.40;;;20.80;62.60;;;;;;5050092;28;20049;-55
2021/09/16 06:35:42;;;;;;;4.72;0.88;;;20.80;62.60;;;;;;5047645;28;20045;-52
2021/09/16 06:38:09;;;;;;;10.15;0.82;;;20.80;62.50;;;;;;5046091;28;20107;-55
2021/09/16 06:40:36;;;;;;;5.07;0.55;;;20.80;62.60;;;;;;5050869;28;20090;-54
2021/09/16 06:43:03;;;;;;;7.85;1.08;;;20.80;62.60;;;;;;5049934;28;20045;-56
2021/09/16 06:45:31;;;;;;;11.38;0.40;;;20.80;62.50;;;;;;5063410;28;20086;-55
2021/09/16 06:47:58;;;;;;;4.03;1.48;;;20.80;62.60;;;;;;5047756;28;20124;-56
2021/09/16 06:50:27;;;;;;;11.75;3.80;;;20.80;62.50;;;;;;5058855;28;20033;-56
2021/09/16 06:52:54;;;;;;;16.48;9.00;;;20.80;62.60;;;;;;5058994;28;20040;-55
2021/09/16 06:55:22;;;;;;;8.63;5.68;;;20.80;62.60;;;;;;5058858;28;20047;-58
2021/09/16 06:57:49;;;;;;;13.30;3.65;;;20.80;62.60;;;;;;5061492;28;20095;-52
2021/09/16 07:00:17;;;;;;;3.30;2.53;;;20.80;63.10;;;;;;5048344;28;20033;-56
2021/09/16 07:02:50;;;;;;;13.15;1.77;;;20.90;63.40;;;;;;5063896;28;20871;-57
2021/09/16 07:05:17;;;;;;;3.63;1.40;;;21.10;63.60;;;;;;5052666;28;20044;-56
2021/09/16 07:07:46;;;;;;;3.00;1.58;;;21.20;63.50;;;;;;5049972;28;20045;-56
2021/09/16 07:10:14;;;;;;;5.40;1.90;;;21.40;63.50;;;;;;5060689;28;20509;-56
2021/09/16 07:12:41;;;;;;;3.25;1.23;;;21.50;63.40;;;;;;5050540;28;20051;-58
2021/09/16 07:15:09;;;;;;;4.03;1.20;;;21.60;63.50;;;;;;5056444;28;20086;-54
2021/09/16 07:17:37;;;;;;;3.70;1.20;;;21.70;63.50;;;;;;5054128;28;20119;-60
2021/09/16 07:20:05;;;;;;;4.22;1.33;;;21.90;63.50;;;;;;5061737;28;20044;-59
2021/09/16 07:22:33;;;;;;;10.15;1.33;;;22.00;63.40;;;;;;5062471;28;20056;-60
2021/09/16 07:25:01;;;;;;;5.13;1.55;;;22.10;63.40;;;;;;5063127;28;20052;-59
2021/09/16 07:27:29;;;;;;;6.95;1.85;;;22.30;63.40;;;;;;5065548;28;20099;-59
2021/09/16 07:29:56;;;;;;;7.57;1.35;;;22.50;63.30;;;;;;5068555;28;20056;-60
2021/09/16 07:32:24;;;;;;;7.53;2.55;;;22.70;63.10;;;;;;5063235;28;20032;-60
2021/09/16 07:34:52;;;;;;;8.05;1.77;;;22.90;62.80;;;;;;5066724;28;20124;-59
2021/09/16 07:37:19;;;;;;;6.80;1.25;;;23.10;62.50;;;;;;5055305;28;20033;-60
2021/09/16 07:39:46;;;;;;;4.22;0.98;;;23.20;62.20;;;;;;5062562;28;20036;-59
2021/09/16 07:42:15;;;;;;;5.95;1.73;;;23.30;61.90;;;;;;5067623;28;20131;-59
2021/09/16 07:44:43;;;;;;;7.63;1.23;;;23.40;61.70;;;;;;5065985;28;20045;-59
2021/09/16 07:47:10;;;;;;;2.33;0.77;;;23.50;61.50;;;;;;5053301;28;20099;-59
2021/09/16 07:49:37;;;;;;;5.45;1.55;;;23.60;61.30;;;;;;5051354;28;20045;-59
2021/09/16 07:52:05;;;;;;;8.77;1.48;;;23.70;61.10;;;;;;5058000;28;20056;-60
2021/09/16 07:54:33;;;;;;;5.63;1.58;;;23.80;61.40;;;;;;5096560;28;20044;-59
2021/09/16 07:57:01;;;;;;;4.15;2.00;;;23.90;60.70;;;;;;5066862;28;20464;-59
2021/09/16 07:59:29;;;;;;;7.03;1.73;;;23.90;60.50;;;;;;5064182;28;20044;-59
2021/09/16 08:01:57;;;;;;;8.02;1.73;;;23.90;60.30;;;;;;5054248;28;20052;-60
2021/09/16 08:04:24;;;;;;;5.72;1.67;;;24.00;60.20;;;;;;5059582;28;20055;-59
2021/09/16 08:06:52;;;;;;;6.05;1.80;;;24.10;60.00;;;;;;5062163;28;20490;-59
2021/09/16 08:09:19;;;;;;;10.90;2.95;;;24.10;59.90;;;;;;5066101;28;20045;-59
2021/09/16 08:11:47;;;;;;;7.47;2.78;;;24.20;59.80;;;;;;5063723;28;20781;-59
2021/09/16 08:14:14;;;;;;;9.80;2.47;;;24.20;59.60;;;;;;5054603;28;20065;-58
2021/09/16 08:16:43;;;;;;;6.60;2.78;;;24.30;59.50;;;;;;5056695;28;20744;-60
2021/09/16 08:19:10;;;;;;;8.93;3.30;;;24.30;59.30;;;;;;5063789;28;20041;-61
2021/09/16 08:21:38;;;;;;;12.65;4.20;;;24.40;59.30;;;;;;5061347;28;20417;-61
2021/09/16 08:24:05;;;;;;;9.25;4.03;;;24.40;59.20;;;;;;5066042;28;20133;-60
2021/09/16 08:26:33;;;;;;;13.20;4.65;;;24.40;59.10;;;;;;5060762;28;20040;-59
2021/09/16 08:29:00;;;;;;;19.05;6.95;;;24.50;59.00;;;;;;5062922;28;20052;-61
2021/09/16 08:31:28;;;;;;;19.63;6.57;;;24.50;58.90;;;;;;5063941;28;20115;-59
2021/09/16 08:33:56;;;;;;;16.98;6.38;;;24.60;58.80;;;;;;5066274;28;20511;-60
2021/09/16 08:36:24;;;;;;;14.45;6.20;;;24.60;58.80;;;;;;5059762;28;20047;-60
2021/09/16 08:38:51;;;;;;;9.95;4.75;;;24.60;58.70;;;;;;5048760;28;20127;-60
2021/09/16 08:41:19;;;;;;;15.23;5.45;;;24.60;58.60;;;;;;5058239;28;20037;-59
2021/09/16 08:43:48;;;;;;;14.38;5.60;;;24.60;58.50;;;;;;5060591;28;20045;-60
2021/09/16 08:46:16;;;;;;;15.45;5.05;;;24.70;58.50;;;;;;5063129;28;20059;-59
2021/09/16 08:48:43;;;;;;;16.35;5.68;;;24.70;58.50;;;;;;5060532;28;20123;-59
2021/09/16 08:51:13;;;;;;;13.00;5.93;;;24.80;59.00;;;;;;5061910;28;20053;-58
2021/09/16 08:53:43;;;;;;;16.83;6.70;;;24.80;58.40;;;;;;5063396;28;20094;-59
2021/09/16 08:56:11;;;;;;;15.38;7.55;;;24.80;58.40;;;;;;5053731;28;20099;-59
2021/09/16 08:58:39;;;;;;;17.45;5.90;;;24.80;58.30;;;;;;5060815;28;20039;-60
2021/09/16 09:01:07;;;;;;;14.02;6.35;;;24.80;58.30;;;;;;5064013;28;20044;-59
2021/09/16 09:03:34;;;;;;;15.13;5.18;;;24.90;58.20;;;;;;5064423;28;20063;-59
2021/09/16 09:06:01;;;;;;;19.27;5.65;;;24.90;58.20;;;;;;5064569;28;20036;-59
2021/09/16 09:08:31;;;;;;;13.35;5.15;;;24.90;58.20;;;;;;5063945;28;20037;-59
2021/09/16 09:11:00;;;;;;;14.50;5.68;;;24.90;58.20;;;;;;5061380;28;20053;-60
2021/09/16 09:13:33;;;;;;;15.07;5.78;;;24.90;58.30;;;;;;5062761;28;20044;-60
2021/09/16 09:16:03;;;;;;;13.80;5.45;;;24.90;58.20;;;;;;5064111;28;20463;-59
2021/09/16 09:18:42;;;;;;;10.32;4.75;;;25.00;58.30;;;;;;5062108;28;20045;-59
2021/09/16 09:21:11;;;;;;;20.42;5.38;;;25.00;58.30;;;;;;5059444;28;20474;-59
2021/09/16 09:23:42;;;;;;;8.10;4.55;;;25.00;58.40;;;;;;5065436;28;20155;-59
2021/09/16 09:26:22;;;;;;;12.90;4.38;;;25.00;58.30;;;;;;5062443;28;20044;-60
2021/09/16 09:28:52;;;;;;;11.55;3.28;;;25.00;58.20;;;;;;5059260;28;20406;-59
2021/09/16 09:31:21;;;;;;;15.20;3.58;;;25.00;58.20;;;;;;5058196;28;20419;-60
2021/09/16 09:33:48;;;;;;;10.07;3.67;;;25.00;58.20;;;;;;5059428;28;20048;-59
2021/09/16 09:36:18;;;;;;;7.38;2.67;;;25.00;58.20;;;;;;5058853;28;20507;-60
2021/09/16 09:38:57;;;;;;;7.22;1.92;;;25.10;58.30;;;;;;5063345;28;20048;-60
2021/09/16 09:41:34;;;;;;;8.50;2.95;;;25.10;58.10;;;;;;5062958;28;20045;-60
2021/09/16 09:44:08;;;;;;;5.00;1.92;;;25.10;58.30;;;;;;5058906;28;20049;-61
2021/09/16 09:46:47;;;;;;;6.28;1.95;;;25.10;58.30;;;;;;5055046;28;20044;-60
2021/09/16 09:49:15;;;;;;;3.80;2.88;;;25.20;58.30;;;;;;5052540;28;20041;-60
2021/09/16 09:51:45;;;;;;;5.60;2.03;;;25.20;58.20;;;;;;5052993;28;20053;-60
2021/09/16 09:54:20;;;;;;;4.85;1.23;;;25.20;58.20;;;;;;5050185;28;20036;-59
2021/09/16 09:57:09;;;;;;;3.20;2.05;;;25.30;58.70;;;;;;5060933;28;20823;-59
2021/09/16 10:00:08;;;;;;;7.60;2.38;;;25.30;58.10;;;;;;5064713;28;20447;-60
2021/09/16 10:02:45;;;;;;;5.22;1.25;;;25.30;58.10;;;;;;5062188;28;20048;-60
2021/09/16 10:05:24;;;;;;;3.45;0.82;;;25.30;58.20;;;;;;5062526;28;20048;-59
2021/09/16 10:07:53;;;;;;;3.78;0.60;;;25.40;58.10;;;;;;5061588;28;20047;-59
2021/09/16 10:10:22;;;;;;;1.90;0.88;;;25.40;58.00;;;;;;5059470;28;20048;-59
2021/09/16 10:12:52;;;;;;;10.73;0.68;;;25.40;57.80;;;;;;5062959;28;20032;-59
2021/09/16 10:15:21;;;;;;;7.75;0.70;;;25.40;57.70;;;;;;5050412;28;20826;-55
2021/09/16 10:17:50;;;;;;;3.80;0.82;;;25.50;57.80;;;;;;5065794;28;20509;-61
2021/09/16 10:20:19;;;;;;;3.90;0.63;;;25.50;57.80;;;;;;5055927;28;20044;-61
2021/09/16 10:22:50;;;;;;;5.78;0.50;;;25.60;57.80;;;;;;5061999;28;20467;-65
2021/09/16 10:25:26;;;;;;;2.50;0.70;;;25.50;57.90;;;;;;5056979;28;20064;-64
2021/09/16 10:27:59;;;;;;;7.25;1.02;;;25.60;58.00;;;;;;5060489;28;20406;-64
2021/09/16 10:30:40;;;;;;;12.65;1.35;;;25.60;57.90;;;;;;5058293;28;20875;-64
2021/09/16 10:33:17;;;;;;;1.35;0.30;;;25.60;57.80;;;;;;5052122;28;20069;-64
2021/09/16 10:35:46;;;;;;;7.60;1.02;;;25.60;57.70;;;;;;5066034;28;20071;-64
2021/09/16 10:38:30;;;;;;;4.70;0.95;;;25.70;57.60;;;;;;5058846;28;20052;-63
2021/09/16 10:41:17;;;;;;;3.28;0.90;;;25.70;57.40;;;;;;5052946;28;20049;-68
2021/09/16 10:43:47;;;;;;;8.07;0.90;;;25.70;58.00;;;;;;5050668;28;20666;-66
2021/09/16 10:46:36;;;;;;;4.82;1.30;;;25.70;59.70;;;;;;5055918;28;20511;-67
2021/09/16 10:49:34;;;;;;;8.02;0.60;;;25.80;60.60;;;;;;5060701;28;20051;-63
2021/09/16 10:52:19;;;;;;;6.68;0.60;;;25.80;61.00;;;;;;5051115;28;20074;-66
2021/09/16 10:54:51;;;;;;;4.22;0.63;;;25.90;61.40;;;;;;5053872;28;20052;-68
2021/09/16 10:57:34;;;;;;;7.55;1.60;;;25.90;61.50;;;;;;5066571;28;20713;-66
2021/09/16 11:00:19;;;;;;;1.30;0.47;;;25.90;61.40;;;;;;5078924;27;20395;-66
2021/09/16 11:03:08;;;;;;;5.80;1.13;;;25.90;61.30;;;;;;5124347;27;20386;-65
2021/09/16 11:05:55;;;;;;;4.88;0.32;;;26.00;61.30;;;;;;5085037;27;20411;-66
2021/09/16 11:08:44;;;;;;;4.43;0.63;;;26.00;61.30;;;;;;5049201;28;20049;-66
2021/09/16 11:11:11;;;;;;;6.50;0.70;;;26.10;61.00;;;;;;5057237;28;20106;-67
2021/09/16 11:13:41;;;;;;;2.92;0.88;;;26.10;60.80;;;;;;5063078;28;20048;-66
2021/09/16 11:16:09;;;;;;;3.40;0.20;;;26.10;60.60;;;;;;5061740;28;20049;-67
2021/09/16 11:18:38;;;;;;;1.58;0.65;;;26.10;60.50;;;;;;5064312;28;20044;-68
2021/09/16 11:21:20;;;;;;;3.25;0.30;;;26.20;60.30;;;;;;5080149;27;20398;-66
2021/09/16 11:24:00;;;;;;;1.52;0.70;;;26.20;60.00;;;;;;5083220;27;20747;-67
2021/09/16 11:26:40;;;;;;;1.20;0.47;;;26.20;59.80;;;;;;5083259;27;20409;-67
2021/09/16 11:29:19;;;;;;;2.53;0.20;;;26.20;59.60;;;;;;5070034;27;20521;-66
2021/09/16 11:32:07;;;;;;;4.22;0.55;;;26.20;59.50;;;;;;5068554;27;20399;-67
2021/09/16 11:34:56;;;;;;;2.50;0.80;;;26.30;59.30;;;;;;5133834;27;20718;-66
2021/09/16 11:37:41;;;;;;;4.07;1.35;;;26.30;59.10;;;;;;5072913;27;20386;-67
2021/09/16 11:40:24;;;;;;;11.10;3.70;;;26.30;58.90;;;;;;5139195;27;20508;-65
2021/09/16 11:43:07;;;;;;;16.13;4.90;;;26.30;58.80;;;;;;5075797;27;20403;-64
2021/09/16 11:45:49;;;;;;;11.23;4.35;;;26.30;58.50;;;;;;5099230;27;20723;-64
2021/09/16 11:48:29;;;;;;;17.17;6.03;;;26.40;58.50;;;;;;5123056;27;20399;-65
2021/09/16 11:51:08;;;;;;;12.82;3.72;;;26.30;58.50;;;;;;5118285;27;20534;-64
2021/09/16 11:53:48;;;;;;;11.13;4.80;;;26.30;58.30;;;;;;5085136;27;20395;-64
2021/09/16 11:56:28;;;;;;;12.00;4.53;;;26.40;58.20;;;;;;5123640;27;20450;-64
2021/09/16 11:59:10;;;;;;;10.10;3.90;;;26.40;58.00;;;;;;5117346;27;20508;-64
2021/09/16 12:01:56;;;;;;;13.77;4.15;;;26.40;57.80;;;;;;5069735;27;20511;-65
2021/09/16 12:04:42;;;;;;;11.55;3.97;;;26.50;57.60;;;;;;5028805;27;20451;-66
2021/09/16 12:07:22;;;;;;;7.53;3.45;;;26.40;57.20;;;;;;5136499;27;20517;-65
2021/09/16 12:10:02;;;;;;;9.40;3.28;;;26.50;57.20;;;;;;5077879;27;20791;-65
2021/09/16 12:12:41;;;;;;;7.68;3.40;;;26.50;57.10;;;;;;5093279;27;20534;-65
2021/09/16 12:15:23;;;;;;;8.90;3.70;;;26.50;56.90;;;;;;5121814;27;20440;-65
2021/09/16 12:18:03;;;;;;;6.70;3.03;;;26.50;56.80;;;;;;5083266;27;20389;-64
2021/09/16 12:20:45;;;;;;;3.92;2.67;;;26.50;56.60;;;;;;5069944;27;20809;-65
2021/09/16 12:23:23;;;;;;;7.38;3.20;;;26.60;56.50;;;;;;5124442;27;1286511;-65
2021/09/16 12:26:17;;;;;;;11.00;3.60;;;26.60;56.30;;;;;;5064253;28;20548;-66
2021/09/16 12:29:00;;;;;;;11.20;3.58;;;26.60;56.20;;;;;;5069719;28;20504;-70
2021/09/16 12:31:42;;;;;;;13.93;4.32;;;26.60;56.10;;;;;;5132518;27;21073;-70
2021/09/16 12:34:22;;;;;;;19.45;6.20;;;26.60;56.10;;;;;;5114684;27;20568;-68
2021/09/16 12:37:04;;;;;;;29.08;10.43;;;26.60;56.00;;;;;;5137198;27;20510;-67
2021/09/16 12:39:46;;;;;;;20.75;8.63;;;26.60;56.00;;;;;;5076373;27;20420;-67
2021/09/16 12:42:28;;;;;;;21.92;8.38;;;26.60;56.00;;;;;;5082159;28;20506;-66
2021/09/16 12:45:13;;;;;;;22.58;9.30;;;26.70;56.00;;;;;;5082340;27;20573;-66
2021/09/16 12:47:54;;;;;;;20.88;7.95;;;26.70;55.90;;;;;;5084346;27;20405;-67
2021/09/16 12:50:35;;;;;;;25.83;8.10;;;26.70;55.90;;;;;;5070997;27;20390;-66
2021/09/16 12:53:16;;;;;;;16.85;6.70;;;26.70;55.80;;;;;;5061429;27;20426;-66
2021/09/16 12:56:09;;;;;;;16.70;5.53;;;26.70;55.80;;;;;;5015465;28;20516;-66
2021/09/16 12:58:49;;;;;;;8.50;4.43;;;26.70;55.50;;;;;;5091834;27;20393;-65
2021/09/16 13:01:35;;;;;;;14.70;5.13;;;26.70;55.40;;;;;;5073443;28;20548;-66
2021/09/16 13:04:16;;;;;;;14.25;6.10;;;26.70;55.50;;;;;;5074581;27;20394;-65